Time;durP1;ratioP1;P1;durP2;ratioP2;P2;SDS_P1;SDS_P2;PMS_P1;PMS_P2;Temp;Humidity;BMP_temperature;BMP_pressure;BME280_temperature;BME280_humidity;BME280_pressure;Samples;Min_cycle;Max_cycle;Signal;HPM_P1;HPM_P2
2023/06/07 00:01:52;;;;;;;22.90;12.18;;;;;;;22.68;48.39;102285.59;4996830;28;20421;-33
2023/06/07 00:04:19;;;;;;;20.30;12.25;;;;;;;22.66;48.44;102279.47;4994058;28;20054;-34
2023/06/07 00:06:47;;;;;;;17.23;11.18;;;;;;;22.65;48.71;102280.50;4992986;28;20382;-33
2023/06/07 00:09:13;;;;;;;21.70;13.05;;;;;;;22.64;48.37;102285.03;4999904;28;20618;-33
2023/06/07 00:11:42;;;;;;;17.88;11.52;;;;;;;22.63;48.78;102291.47;4994916;28;20041;-33
2023/06/07 00:14:09;;;;;;;19.30;11.63;;;;;;;22.62;48.66;102289.72;4997225;28;20108;-33
2023/06/07 00:16:35;;;;;;;19.73;11.98;;;;;;;22.63;48.82;102291.47;4994356;28;20081;-34
2023/06/07 00:19:03;;;;;;;17.80;11.20;;;;;;;22.59;48.33;102284.66;4994048;28;20353;-34
2023/06/07 00:21:30;;;;;;;17.33;11.55;;;;;;;22.59;48.56;102281.94;4996640;28;20056;-33
2023/06/07 00:23:57;;;;;;;16.45;11.18;;;;;;;22.56;48.45;102279.53;4996068;28;20077;-33
2023/06/07 00:26:24;;;;;;;15.90;10.10;;;;;;;22.57;48.35;102292.03;4992229;28;20081;-34
2023/06/07 00:28:51;;;;;;;16.42;11.15;;;;;;;22.56;48.49;102289.50;5001656;28;20057;-34
2023/06/07 00:31:18;;;;;;;17.77;11.35;;;;;;;22.55;48.85;102290.47;5000488;28;20145;-34
2023/06/07 00:33:45;;;;;;;15.70;10.45;;;;;;;22.54;48.72;102291.47;5003573;28;20109;-33
2023/06/07 00:36:11;;;;;;;16.17;10.50;;;;;;;22.53;48.66;102293.34;5002523;28;20049;-33
2023/06/07 00:38:38;;;;;;;16.98;10.80;;;;;;;22.53;48.48;102290.63;5002050;28;20084;-34
2023/06/07 00:41:04;;;;;;;17.98;10.98;;;;;;;22.50;48.56;102290.91;5001105;28;20088;-33
2023/06/07 00:43:31;;;;;;;16.15;10.13;;;;;;;22.50;48.67;102285.53;4995516;28;20431;-34
2023/06/07 00:45:58;;;;;;;16.42;9.75;;;;;;;22.49;48.75;102286.53;5001736;28;20104;-33
2023/06/07 00:48:26;;;;;;;16.13;9.55;;;;;;;22.48;48.51;102286.69;4999170;28;20053;-33
2023/06/07 00:50:53;;;;;;;14.50;9.05;;;;;;;22.48;48.85;102287.53;5001058;28;20045;-34
2023/06/07 00:53:20;;;;;;;15.23;9.25;;;;;;;22.46;48.38;102284.13;5002243;28;20465;-34
2023/06/07 00:55:46;;;;;;;14.25;9.20;;;;;;;22.46;48.75;102283.25;4998323;28;20050;-33
2023/06/07 00:58:14;;;;;;;15.52;9.18;;;;;;;22.46;48.53;102280.56;4995822;28;20559;-33
2023/06/07 01:00:41;;;;;;;15.38;9.63;;;;;;;22.45;48.81;102279.72;5001599;28;20042;-34
2023/06/07 01:03:08;;;;;;;13.85;9.35;;;;;;;22.44;48.83;102269.91;4997443;28;20239;-33
2023/06/07 01:05:36;;;;;;;14.52;8.70;;;;;;;22.44;48.52;102282.56;5005295;28;20551;-34
2023/06/07 01:08:03;;;;;;;14.65;9.68;;;;;;;22.42;48.79;102280.84;4997494;28;20394;-33
2023/06/07 01:10:30;;;;;;;15.35;8.55;;;;;;;22.41;48.69;102276.47;4999280;28;20114;-34
2023/06/07 01:12:59;;;;;;;12.85;8.32;;;;;;;22.42;48.81;102271.91;4995659;28;20054;-33
2023/06/07 01:15:25;;;;;;;12.90;8.75;;;;;;;22.41;48.88;102272.91;4999311;28;20405;-33
2023/06/07 01:17:53;;;;;;;13.00;7.95;;;;;;;22.41;48.93;102284.56;4998799;28;20065;-34
2023/06/07 01:20:25;;;;;;;13.57;8.48;;;;;;;22.41;48.75;102283.72;4994941;28;20049;-34
2023/06/07 01:22:59;;;;;;;13.85;7.53;;;;;;;22.39;48.80;102280.28;4999413;28;20068;-33
2023/06/07 01:25:26;;;;;;;14.07;8.32;;;;;;;22.40;48.72;102282.03;4998463;28;20278;-33
2023/06/07 01:27:53;;;;;;;11.57;8.13;;;;;;;22.38;48.99;102292.94;4994257;28;20088;-34
2023/06/07 01:30:22;;;;;;;13.25;7.68;;;;;;;22.37;48.79;102280.44;4999679;28;20056;-33
2023/06/07 01:32:51;;;;;;;12.50;7.63;;;;;;;22.37;49.09;102279.59;4993002;28;20062;-34
2023/06/07 01:35:19;;;;;;;12.00;7.35;;;;;;;22.35;48.75;102281.59;4996012;28;20389;-33
2023/06/07 01:37:46;;;;;;;10.48;7.28;;;;;;;22.36;48.93;102284.16;4998040;28;20046;-34
2023/06/07 01:40:15;;;;;;;11.13;7.10;;;;;;;22.35;49.02;102282.47;4999713;28;20139;-33
2023/06/07 01:42:42;;;;;;;11.43;7.05;;;;;;;22.34;48.99;102279.88;4999260;28;20413;-33
2023/06/07 01:45:10;;;;;;;10.40;6.93;;;;;;;22.33;48.95;102279.03;4999417;28;20055;-34
2023/06/07 01:47:37;;;;;;;12.25;7.32;;;;;;;22.33;49.14;102279.03;5006525;28;20050;-33
2023/06/07 01:50:05;;;;;;;10.00;6.40;;;;;;;22.32;49.09;102280.03;5005135;28;20053;-33
2023/06/07 01:52:32;;;;;;;11.13;7.07;;;;;;;22.31;49.02;102272.06;5006280;28;20050;-34
2023/06/07 01:55:00;;;;;;;11.55;6.75;;;;;;;22.31;48.79;102272.06;5002510;28;20052;-34
2023/06/07 01:57:56;;;;;;;11.50;7.18;;;;;;;22.28;49.26;102275.94;4996153;28;20050;-33
2023/06/07 02:00:32;;;;;;;11.07;6.65;;;;;;;22.27;49.06;102268.84;4996689;28;20704;-33
2023/06/07 02:03:06;;;;;;;10.48;6.50;;;;;;;22.27;48.96;102273.38;4997903;28;20100;-33
2023/06/07 02:05:56;;;;;;;9.13;6.07;;;;;;;22.25;49.23;102273.53;4997361;28;20373;-33
2023/06/07 02:08:32;;;;;;;10.10;6.28;;;;;;;22.26;49.06;102268.97;4994901;28;20172;-33
2023/06/07 02:11:01;;;;;;;9.50;6.10;;;;;;;22.25;48.96;102267.28;5002221;28;20038;-33
2023/06/07 02:13:32;;;;;;;10.32;6.35;;;;;;;22.24;49.23;102265.59;4993944;28;20162;-33
2023/06/07 02:15:59;;;;;;;9.02;6.13;;;;;;;22.24;49.03;102270.97;4995232;28;20140;-33
2023/06/07 02:18:25;;;;;;;8.10;5.70;;;;;;;22.23;49.06;102269.25;4996592;28;20069;-34
2023/06/07 02:20:52;;;;;;;9.85;6.18;;;;;;;22.22;48.95;102267.56;4998384;28;20052;-33
2023/06/07 02:23:19;;;;;;;7.45;5.13;;;;;;;22.21;49.22;102257.75;4998081;28;20050;-34
2023/06/07 02:25:45;;;;;;;8.82;5.50;;;;;;;22.21;49.22;102263.16;5000468;28;20082;-33
2023/06/07 02:28:12;;;;;;;8.90;5.90;;;;;;;22.18;49.38;102259.75;4998651;28;20054;-33
2023/06/07 02:30:39;;;;;;;9.13;5.78;;;;;;;22.18;49.03;102262.44;4999918;28;20141;-33
2023/06/07 02:33:06;;;;;;;9.50;6.18;;;;;;;22.17;49.37;102255.34;5001583;28;20058;-33
2023/06/07 02:35:33;;;;;;;7.40;4.93;;;;;;;22.17;48.89;102260.75;5001159;28;20053;-33
2023/06/07 02:38:00;;;;;;;9.13;5.65;;;;;;;22.17;48.97;102259.91;5003479;28;20051;-33
2023/06/07 02:40:26;;;;;;;9.50;5.20;;;;;;;22.16;49.11;102258.22;5005489;28;20213;-33
2023/06/07 02:42:53;;;;;;;10.13;5.15;;;;;;;22.15;49.23;102256.47;5004984;28;20082;-34
2023/06/07 02:45:20;;;;;;;9.85;5.45;;;;;;;22.14;49.14;102258.34;5003717;28;20073;-34
2023/06/07 02:47:47;;;;;;;7.40;5.00;;;;;;;22.14;49.46;102261.03;5003633;28;20134;-33
2023/06/07 02:50:13;;;;;;;7.72;4.85;;;;;;;22.14;49.00;102260.19;5001555;28;20119;-33
2023/06/07 02:52:41;;;;;;;8.02;5.03;;;;;;;22.14;49.36;102252.09;5000311;28;20097;-33
2023/06/07 02:55:08;;;;;;;7.07;4.88;;;;;;;22.12;49.22;102262.16;5004396;28;20061;-33
2023/06/07 02:57:35;;;;;;;6.85;4.72;;;;;;;22.12;49.07;102257.63;5005513;28;20394;-33
2023/06/07 03:00:08;;;;;;;10.95;5.18;;;;;;;22.11;49.41;102258.63;5006928;28;20043;-33
2023/06/07 03:02:35;;;;;;;7.30;4.50;;;;;;;22.10;49.08;102262.28;5004945;28;20641;-33
2023/06/07 03:05:02;;;;;;;9.10;4.28;;;;;;;22.10;49.42;102259.59;4997535;28;20504;-35
2023/06/07 03:07:28;;;;;;;6.45;4.22;;;;;;;22.09;49.43;102260.59;5002740;28;20081;-33
2023/06/07 03:09:55;;;;;;;6.57;4.55;;;;;;;22.08;49.30;102256.22;5005540;28;20061;-33
2023/06/07 03:12:21;;;;;;;7.47;3.92;;;;;;;22.08;49.45;102256.22;5000871;28;20046;-33
2023/06/07 03:14:48;;;;;;;7.60;4.43;;;;;;;22.07;49.29;102259.91;5000913;28;20149;-33
2023/06/07 03:17:17;;;;;;;5.75;4.05;;;;;;;22.07;49.40;102257.22;4993062;28;20093;-33
2023/06/07 03:19:44;;;;;;;8.32;4.35;;;;;;;22.07;49.33;102257.22;4994709;28;20057;-34
2023/06/07 03:22:10;;;;;;;7.25;4.05;;;;;;;22.06;49.29;102255.47;4995884;28;20131;-34
2023/06/07 03:24:37;;;;;;;6.55;4.10;;;;;;;22.06;49.28;102255.47;4995423;28;20133;-33
2023/06/07 03:27:05;;;;;;;9.70;4.18;;;;;;;22.06;49.11;102254.63;4997310;28;21242;-33
2023/06/07 03:29:32;;;;;;;7.03;4.00;;;;;;;22.05;49.21;102261.88;4997275;28;20440;-33
2023/06/07 03:31:58;;;;;;;6.13;3.85;;;;;;;22.04;49.25;102257.50;4997753;28;20645;-34
2023/06/07 03:34:29;;;;;;;6.75;4.05;;;;;;;22.04;49.20;102256.66;4993902;28;20128;-33
2023/06/07 03:36:56;;;;;;;7.55;3.70;;;;;;;22.04;49.15;102259.34;4997570;28;20046;-34
2023/06/07 03:39:23;;;;;;;6.22;3.83;;;;;;;22.03;49.06;102257.63;4992939;28;20046;-34
2023/06/07 03:41:49;;;;;;;4.93;3.60;;;;;;;22.03;49.17;102258.50;4995973;28;20073;-33
2023/06/07 03:44:16;;;;;;;6.72;3.80;;;;;;;22.01;49.40;102263.19;4993007;28;20060;-33
2023/06/07 03:46:43;;;;;;;7.13;3.53;;;;;;;22.02;49.36;102264.03;4993977;28;20058;-33
2023/06/07 03:49:09;;;;;;;6.75;3.35;;;;;;;22.00;49.18;102258.78;4993067;28;20405;-33
2023/06/07 03:51:38;;;;;;;6.60;3.55;;;;;;;22.00;49.18;102264.19;4997208;28;20052;-33
2023/06/07 03:54:05;;;;;;;5.65;3.10;;;;;;;22.00;49.53;102266.03;4993773;28;20565;-33
2023/06/07 03:56:31;;;;;;;5.70;3.55;;;;;;;22.00;49.18;102264.19;4995409;28;20108;-34
2023/06/07 03:59:01;;;;;;;4.65;3.42;;;;;;;21.99;49.35;102270.59;4992845;28;20095;-33
2023/06/07 04:01:28;;;;;;;6.07;2.67;;;;;;;21.99;49.37;102270.59;4993868;28;20112;-33
2023/06/07 04:03:54;;;;;;;8.18;3.65;;;;;;;22.00;49.57;102266.03;4991855;28;20092;-34
2023/06/07 04:06:24;;;;;;;5.00;3.17;;;;;;;21.99;49.42;102276.00;4993557;28;20058;-34
2023/06/07 04:08:56;;;;;;;9.02;3.80;;;;;;;22.00;49.51;102271.44;4993734;28;20054;-34
2023/06/07 04:11:26;;;;;;;7.87;2.93;;;;;;;21.99;49.30;102280.50;4997246;28;20045;-33
2023/06/07 04:13:52;;;;;;;11.50;4.55;;;;;;;21.98;49.29;102276.97;4992906;28;20133;-34
2023/06/07 04:16:19;;;;;;;8.80;3.72;;;;;;;21.98;49.22;102274.25;4988191;28;20045;-35
2023/06/07 04:18:46;;;;;;;10.35;4.32;;;;;;;21.98;49.36;102270.72;4989246;28;20042;-33
2023/06/07 04:21:13;;;;;;;8.25;5.10;;;;;;;21.98;49.28;102273.41;4995122;28;20042;-33
2023/06/07 04:23:41;;;;;;;10.27;5.63;;;;;;;21.97;49.07;102272.56;5004414;28;20042;-33
2023/06/07 04:26:08;;;;;;;11.07;5.72;;;;;;;21.97;49.07;102269.03;4995267;28;20109;-33
2023/06/07 04:28:35;;;;;;;12.20;6.38;;;;;;;21.96;49.15;102276.28;5004358;28;20105;-33
2023/06/07 04:31:02;;;;;;;13.10;7.45;;;;;;;21.96;48.93;102270.88;5004689;28;20128;-33
2023/06/07 04:33:28;;;;;;;14.15;7.28;;;;;;;21.95;48.85;102269.19;5003151;28;20053;-33
2023/06/07 04:35:58;;;;;;;12.38;7.28;;;;;;;21.93;49.05;102272.00;5005436;28;20409;-33
2023/06/07 04:38:25;;;;;;;14.75;8.77;;;;;;;21.94;48.85;102280.94;5013276;28;20137;-34
2023/06/07 04:40:53;;;;;;;11.80;7.75;;;;;;;21.94;48.92;102280.94;5012123;28;20104;-33
2023/06/07 04:43:20;;;;;;;14.77;8.45;;;;;;;21.94;48.71;102280.94;5010493;28;20370;-34
2023/06/07 04:45:53;;;;;;;16.20;8.93;;;;;;;21.94;49.02;102273.69;5009161;28;20128;-34
2023/06/07 04:48:22;;;;;;;15.02;8.95;;;;;;;21.95;48.88;102277.28;5006883;28;20049;-33
2023/06/07 04:50:50;;;;;;;17.75;9.15;;;;;;;21.97;48.93;102286.06;5002164;28;20350;-34
2023/06/07 04:53:19;;;;;;;16.00;8.93;;;;;;;21.98;48.96;102281.50;5009580;28;20096;-33
2023/06/07 04:55:47;;;;;;;17.40;9.57;;;;;;;21.97;48.93;102279.81;5006041;28;20119;-33
2023/06/07 04:58:16;;;;;;;21.23;9.40;;;;;;;21.98;48.85;102284.22;5004194;28;20073;-34
2023/06/07 05:00:43;;;;;;;15.55;9.82;;;;;;;22.00;48.74;102277.69;5000727;28;20054;-33
2023/06/07 05:03:13;;;;;;;14.15;8.98;;;;;;;22.02;48.74;102283.78;5002441;28;20104;-33
2023/06/07 05:05:40;;;;;;;14.73;9.45;;;;;;;22.03;48.39;102279.22;5001494;28;20046;-33
2023/06/07 05:08:07;;;;;;;15.13;9.15;;;;;;;22.05;48.38;102278.09;4999594;28;20046;-33
2023/06/07 05:10:33;;;;;;;16.42;9.38;;;;;;;22.05;48.36;102274.53;5004681;28;20050;-34
2023/06/07 05:13:00;;;;;;;16.63;10.02;;;;;;;22.07;48.59;102272.53;4998287;28;20415;-33
2023/06/07 05:15:27;;;;;;;16.08;9.50;;;;;;;22.09;48.33;102274.09;5003302;28;20070;-34
2023/06/07 05:17:54;;;;;;;16.30;9.80;;;;;;;22.09;48.29;102276.81;4999315;28;20053;-33
2023/06/07 05:20:20;;;;;;;16.40;9.95;;;;;;;22.11;48.46;102277.53;4999305;28;20060;-33
2023/06/07 05:22:47;;;;;;;19.25;9.57;;;;;;;22.12;48.50;102271.13;4998592;28;20058;-34
2023/06/07 05:25:14;;;;;;;14.38;9.27;;;;;;;22.13;48.36;102272.84;5004346;28;20405;-33
2023/06/07 05:27:41;;;;;;;15.15;8.90;;;;;;;22.15;48.29;102273.56;5002790;28;20133;-33
2023/06/07 05:30:08;;;;;;;16.83;9.43;;;;;;;22.16;48.27;102266.31;4999151;28;20423;-34
2023/06/07 05:32:36;;;;;;;16.13;9.07;;;;;;;22.17;48.03;102268.00;4990806;28;20426;-33
2023/06/07 05:35:03;;;;;;;16.63;10.02;;;;;;;22.18;48.16;102265.16;5005579;28;20057;-34
2023/06/07 05:37:30;;;;;;;15.15;8.80;;;;;;;22.20;48.11;102273.13;5000420;28;20092;-33
2023/06/07 05:39:58;;;;;;;14.70;9.45;;;;;;;22.23;48.15;102272.84;4997965;28;20042;-33
2023/06/07 05:42:24;;;;;;;18.77;9.55;;;;;;;22.22;48.25;102273.81;4996690;28;20441;-36
2023/06/07 05:44:51;;;;;;;18.77;9.90;;;;;;;22.26;47.99;102277.06;4995827;28;20142;-33
2023/06/07 05:47:20;;;;;;;16.70;10.10;;;;;;;22.27;48.14;102279.66;4996207;28;20104;-34
2023/06/07 05:49:47;;;;;;;16.25;9.38;;;;;;;22.29;47.92;102282.19;4996520;28;20051;-33
2023/06/07 05:52:14;;;;;;;16.92;9.15;;;;;;;22.30;47.47;102281.19;5004482;28;20060;-34
2023/06/07 05:54:49;;;;;;;16.30;9.30;;;;;;;22.30;47.64;102290.13;5005266;28;20112;-33
2023/06/07 05:57:15;;;;;;;16.75;10.10;;;;;;;22.31;47.59;102290.97;5002671;28;20046;-33
2023/06/07 05:59:42;;;;;;;15.07;9.23;;;;;;;22.31;47.58;102293.69;5000293;28;20046;-33
2023/06/07 06:02:09;;;;;;;15.45;9.18;;;;;;;22.30;47.02;102298.25;5003692;28;20101;-33
2023/06/07 06:04:36;;;;;;;14.90;9.05;;;;;;;22.29;47.43;102298.41;5003750;28;20061;-33
2023/06/07 06:07:02;;;;;;;16.70;9.88;;;;;;;22.28;47.60;102296.69;5001200;28;20064;-34
2023/06/07 06:09:30;;;;;;;14.32;8.48;;;;;;;22.27;47.41;102305.78;5001428;28;20043;-34
2023/06/07 06:11:56;;;;;;;16.88;8.68;;;;;;;22.25;47.49;102299.69;5001491;28;20196;-33
2023/06/07 06:14:25;;;;;;;14.32;7.72;;;;;;;22.24;47.44;102306.94;5003380;28;20049;-33
2023/06/07 06:16:51;;;;;;;23.83;8.75;;;;;;;22.23;47.51;102309.78;5000946;28;20069;-33
2023/06/07 06:19:18;;;;;;;15.85;8.18;;;;;;;22.18;47.61;102307.50;5003944;28;20049;-34
2023/06/07 06:21:45;;;;;;;45.90;12.10;;;;;;;22.17;47.62;102305.81;5005105;28;20138;-33
2023/06/07 06:24:11;;;;;;;27.90;9.70;;;;;;;22.15;47.65;102308.69;5000729;28;20133;-33
2023/06/07 06:26:38;;;;;;;25.40;10.18;;;;;;;22.14;47.91;102315.03;4999214;28;20047;-33
2023/06/07 06:29:05;;;;;;;30.13;10.00;;;;;;;22.14;47.79;102308.78;5004069;28;20050;-33
2023/06/07 06:31:31;;;;;;;26.35;9.52;;;;;;;22.14;47.84;102306.09;5004758;28;20041;-33
2023/06/07 06:33:59;;;;;;;24.65;10.05;;;;;;;22.14;47.86;102311.50;5001664;28;20335;-33
2023/06/07 06:36:26;;;;;;;24.95;8.82;;;;;;;22.14;47.92;102303.41;5006936;28;20085;-33
2023/06/07 06:38:53;;;;;;;31.17;9.55;;;;;;;22.13;48.13;102304.41;5000206;28;20492;-33
2023/06/07 06:41:20;;;;;;;27.85;9.55;;;;;;;22.14;48.16;102309.66;5002043;28;20085;-32
2023/06/07 06:43:46;;;;;;;42.55;10.40;;;;;;;22.14;48.01;102309.66;5005138;28;20156;-33
2023/06/07 06:46:13;;;;;;;35.17;11.50;;;;;;;22.16;48.17;102314.91;5003711;28;20046;-32
2023/06/07 06:48:43;;;;;;;26.92;9.18;;;;;;;22.17;48.38;102311.22;5001874;28;20052;-33
2023/06/07 06:51:24;;;;;;;24.60;8.52;;;;;;;22.18;48.18;102312.91;5006258;28;20085;-35
2023/06/07 06:53:51;;;;;;;20.50;9.30;;;;;;;22.19;48.08;102314.59;5000487;28;20104;-33
2023/06/07 06:56:18;;;;;;;28.27;9.13;;;;;;;22.21;47.85;102317.19;5001712;28;20050;-33
2023/06/07 06:58:46;;;;;;;22.92;8.60;;;;;;;22.23;48.00;102317.88;5004087;28;20051;-33
2023/06/07 07:01:16;;;;;;;22.63;8.38;;;;;;;22.23;47.95;102318.75;5002008;28;20181;-32
2023/06/07 07:03:43;;;;;;;21.15;7.32;;;;;;;22.23;47.64;102315.16;4996618;28;20082;-32
2023/06/07 07:06:10;;;;;;;27.20;8.75;;;;;;;22.24;47.72;102312.34;4995800;28;20069;-33
2023/06/07 07:08:37;;;;;;;20.90;8.10;;;;;;;22.25;47.66;102313.19;4997722;28;20439;-33
2023/06/07 07:11:03;;;;;;;17.27;7.40;;;;;;;22.26;47.87;102314.88;4999610;28;20476;-32
2023/06/07 07:13:30;;;;;;;14.05;6.97;;;;;;;22.24;47.79;102312.34;4998594;28;20053;-32
2023/06/07 07:15:57;;;;;;;23.10;8.73;;;;;;;22.26;47.53;102309.47;5003787;28;20077;-33
2023/06/07 07:18:24;;;;;;;15.10;6.88;;;;;;;22.26;47.72;102310.34;5001951;28;20080;-32
2023/06/07 07:20:51;;;;;;;15.55;6.72;;;;;;;22.26;47.75;102312.19;5001431;28;20104;-33
2023/06/07 07:23:17;;;;;;;15.02;7.03;;;;;;;22.27;47.47;102316.59;5003823;28;20509;-33
2023/06/07 07:25:44;;;;;;;20.20;7.72;;;;;;;22.28;47.64;102321.00;4999876;28;20405;-35
2023/06/07 07:28:11;;;;;;;17.83;6.82;;;;;;;22.28;47.39;102327.25;5000643;28;20081;-33
2023/06/07 07:30:40;;;;;;;15.55;6.22;;;;;;;22.27;47.46;102314.75;5000998;28;20034;-33
2023/06/07 07:33:09;;;;;;;15.88;6.70;;;;;;;22.28;47.39;102318.31;4998151;28;20552;-33
2023/06/07 07:35:36;;;;;;;16.40;7.47;;;;;;;22.27;47.32;102316.59;5002896;28;20046;-34
2023/06/07 07:38:03;;;;;;;15.82;6.70;;;;;;;22.28;47.20;102312.91;4999049;28;20116;-33
2023/06/07 07:40:30;;;;;;;12.25;6.22;;;;;;;22.27;47.56;102311.19;4998562;28;20046;-33
2023/06/07 07:42:57;;;;;;;15.68;7.05;;;;;;;22.27;47.35;102321.97;4997534;28;20058;-33
2023/06/07 07:45:23;;;;;;;15.80;6.07;;;;;;;22.28;47.24;102321.00;5003350;28;20505;-33
2023/06/07 07:47:50;;;;;;;16.23;6.35;;;;;;;22.26;47.64;102315.72;4999727;28;20050;-33
2023/06/07 07:50:17;;;;;;;12.07;5.20;;;;;;;22.26;47.15;102321.13;5003494;28;20104;-34
2023/06/07 07:52:43;;;;;;;14.90;6.10;;;;;;;22.27;47.35;102319.28;5006501;28;20327;-34
2023/06/07 07:55:11;;;;;;;11.15;6.22;;;;;;;22.27;47.44;102321.97;5003799;28;21404;-33
2023/06/07 07:57:37;;;;;;;10.27;5.63;;;;;;;22.28;47.36;102318.31;4999329;28;20053;-33
2023/06/07 08:00:05;;;;;;;13.18;5.88;;;;;;;22.29;47.48;102322.72;5001339;28;20100;-33
2023/06/07 08:02:32;;;;;;;12.90;5.72;;;;;;;22.30;47.48;102321.69;5002671;28;20046;-33
2023/06/07 08:05:00;;;;;;;15.25;5.47;;;;;;;22.29;47.39;102320.84;5001460;28;20045;-33
2023/06/07 08:07:26;;;;;;;11.15;5.25;;;;;;;22.31;47.54;102326.97;5000051;28;20058;-34
2023/06/07 08:09:53;;;;;;;10.20;4.72;;;;;;;22.31;47.42;102321.56;5002876;28;20108;-33
2023/06/07 08:12:19;;;;;;;10.30;5.13;;;;;;;22.32;47.31;102325.13;5000826;28;20097;-33
2023/06/07 08:14:46;;;;;;;10.88;5.43;;;;;;;22.32;47.46;102319.72;4999383;28;20105;-34
2023/06/07 08:17:13;;;;;;;13.73;6.32;;;;;;;22.33;47.63;102319.56;4999563;28;20053;-33
2023/06/07 08:19:39;;;;;;;9.35;5.28;;;;;;;22.33;47.26;102324.13;4993658;28;20125;-34
2023/06/07 08:22:06;;;;;;;10.18;5.35;;;;;;;22.35;47.30;102324.81;5001308;28;20402;-34
2023/06/07 08:24:33;;;;;;;12.48;4.60;;;;;;;22.35;47.33;102311.31;4996112;28;20082;-34
2023/06/07 08:27:00;;;;;;;9.93;4.72;;;;;;;22.36;47.43;102311.19;5002458;28;20375;-34
2023/06/07 08:29:26;;;;;;;10.80;4.63;;;;;;;22.37;47.19;102312.88;5006417;28;20462;-33
2023/06/07 08:31:53;;;;;;;13.20;5.47;;;;;;;22.39;47.39;102312.72;5005052;28;20056;-33
2023/06/07 08:34:27;;;;;;;13.32;4.82;;;;;;;22.40;47.10;102306.34;5000375;28;20158;-33
2023/06/07 08:36:55;;;;;;;8.73;5.03;;;;;;;22.40;47.17;102307.19;5006607;28;20496;-33
2023/06/07 08:39:22;;;;;;;14.45;4.43;;;;;;;22.42;47.24;102307.88;5004242;28;20050;-34
2023/06/07 08:41:49;;;;;;;9.50;4.30;;;;;;;22.44;47.13;102306.91;4997086;28;20097;-33
2023/06/07 08:44:16;;;;;;;10.00;4.22;;;;;;;22.46;47.30;102302.19;4998676;28;20102;-34
2023/06/07 08:46:46;;;;;;;8.80;4.13;;;;;;;22.47;47.02;102303.88;5004127;28;20081;-34
2023/06/07 08:49:13;;;;;;;6.88;3.65;;;;;;;22.50;47.19;102304.44;5004853;28;20109;-33
2023/06/07 08:51:41;;;;;;;10.88;3.75;;;;;;;22.51;47.03;102305.28;5035871;28;20186;-33
2023/06/07 08:54:12;;;;;;;6.70;3.60;;;;;;;22.53;46.52;102306.84;5003775;28;20350;-33
2023/06/07 08:56:39;;;;;;;7.15;3.75;;;;;;;22.54;46.67;102311.25;5004397;28;20050;-33
2023/06/07 08:59:06;;;;;;;9.98;3.90;;;;;;;22.56;46.50;102300.31;4996464;28;20046;-33
2023/06/07 09:01:34;;;;;;;8.25;3.35;;;;;;;22.57;46.56;102304.69;4999014;28;20108;-34
2023/06/07 09:04:01;;;;;;;7.38;3.58;;;;;;;22.58;46.24;102309.94;4999267;28;20137;-34
2023/06/07 09:06:28;;;;;;;16.48;3.22;;;;;;;22.59;46.46;102314.38;5000914;28;20050;-33
2023/06/07 09:08:56;;;;;;;9.95;3.28;;;;;;;22.60;46.03;102313.38;4998634;28;20042;-34
2023/06/07 09:11:23;;;;;;;8.88;3.10;;;;;;;22.61;46.19;102311.50;5026653;28;20046;-33
2023/06/07 09:13:50;;;;;;;8.05;3.25;;;;;;;22.62;45.80;102302.41;4994158;28;20111;-33
2023/06/07 09:16:17;;;;;;;10.80;3.10;;;;;;;22.64;45.97;102314.78;4995091;28;20053;-34
2023/06/07 09:18:53;;;;;;;8.55;3.35;;;;;;;22.64;45.49;102309.38;4994059;28;20434;-33
2023/06/07 09:21:28;;;;;;;8.32;3.20;;;;;;;22.66;45.54;102306.50;4997943;28;20508;-33
2023/06/07 09:23:59;;;;;;;7.00;2.90;;;;;;;22.67;45.60;102317.19;4997588;28;20046;-34
2023/06/07 09:26:38;;;;;;;8.07;2.63;;;;;;;22.69;45.40;102305.38;4998233;28;20323;-33
2023/06/07 09:29:09;;;;;;;9.13;3.08;;;;;;;22.69;45.43;102306.22;5001471;28;20089;-33
2023/06/07 09:31:37;;;;;;;8.55;3.03;;;;;;;22.71;45.15;102308.75;5002342;28;20050;-33
2023/06/07 09:34:25;;;;;;;10.23;3.00;;;;;;;22.72;44.97;102299.66;5006148;28;20082;-33
2023/06/07 09:36:57;;;;;;;8.63;3.03;;;;;;;22.74;45.16;102297.66;5004237;28;20049;-34
2023/06/07 09:39:29;;;;;;;8.80;3.10;;;;;;;22.75;44.95;102299.34;5005231;28;20449;-34
2023/06/07 09:41:57;;;;;;;6.35;2.70;;;;;;;22.77;45.34;102298.22;5002549;28;20064;-33
2023/06/07 09:44:28;;;;;;;5.45;2.45;;;;;;;22.81;45.36;102293.34;5000495;28;20357;-33
2023/06/07 09:46:56;;;;;;;7.80;2.83;;;;;;;22.82;45.47;102289.66;5006447;28;20366;-33
2023/06/07 09:49:34;;;;;;;6.35;2.35;;;;;;;22.83;45.34;102292.19;4998803;28;20047;-34
2023/06/07 09:52:03;;;;;;;7.40;2.53;;;;;;;22.87;45.35;102287.34;5003122;28;20145;-33
2023/06/07 09:54:43;;;;;;;8.85;2.67;;;;;;;22.88;45.34;102289.91;5005516;28;20700;-33
2023/06/07 09:57:23;;;;;;;8.45;3.17;;;;;;;22.91;45.42;102288.78;5002121;28;20085;-33
2023/06/07 10:00:17;;;;;;;4.75;2.17;;;;;;;22.92;45.35;102285.09;4999302;28;20072;-33
2023/06/07 10:02:47;;;;;;;9.15;2.90;;;;;;;22.97;45.11;102298.16;5002700;28;20508;-33
2023/06/07 10:05:15;;;;;;;7.40;2.55;;;;;;;22.99;45.62;102296.13;5004775;28;20069;-33
2023/06/07 10:07:44;;;;;;;5.32;2.65;;;;;;;23.00;45.08;102289.75;5004278;28;20077;-33
2023/06/07 10:10:17;;;;;;;7.65;2.85;;;;;;;23.01;45.36;102284.16;5001796;28;20418;-34
2023/06/07 10:12:46;;;;;;;6.43;2.45;;;;;;;23.02;45.27;102287.72;5001348;28;20054;-34
2023/06/07 10:15:15;;;;;;;5.20;2.35;;;;;;;23.03;45.32;102282.16;5003254;28;20046;-33
2023/06/07 10:17:50;;;;;;;5.43;2.20;;;;;;;23.05;45.34;102280.16;5007422;28;20073;-33
2023/06/07 10:20:52;;;;;;;6.15;2.17;;;;;;;23.06;45.55;102289.13;5006217;28;20394;-34
2023/06/07 10:23:32;;;;;;;4.68;2.45;;;;;;;23.09;45.22;102296.94;5008934;28;20053;-33
2023/06/07 10:26:04;;;;;;;5.00;2.50;;;;;;;23.10;45.21;102294.06;5003954;28;20501;-33
2023/06/07 10:28:40;;;;;;;5.15;2.25;;;;;;;23.11;45.34;102290.34;5007259;28;20434;-33
2023/06/07 10:31:12;;;;;;;4.93;2.10;;;;;;;23.13;45.14;102282.94;4998310;28;20050;-34
2023/06/07 10:33:40;;;;;;;4.30;2.35;;;;;;;23.15;45.58;102285.50;5001334;28;20520;-33
2023/06/07 10:36:08;;;;;;;5.80;2.60;;;;;;;23.15;45.17;102289.03;5001387;28;20116;-34
2023/06/07 10:38:35;;;;;;;9.70;2.47;;;;;;;23.17;45.53;102288.91;5007981;28;20042;-34
2023/06/07 10:41:04;;;;;;;3.45;2.10;;;;;;;23.19;45.76;102286.03;5005954;28;20161;-33
2023/06/07 10:43:33;;;;;;;5.57;2.13;;;;;;;23.20;45.42;102275.09;5006062;28;20434;-33
2023/06/07 10:46:19;;;;;;;4.47;2.05;;;;;;;23.20;45.42;102283.19;5002561;28;20058;-33
2023/06/07 10:48:47;;;;;;;4.93;2.08;;;;;;;23.23;45.74;102272.06;5003374;28;20054;-34
2023/06/07 10:51:15;;;;;;;6.78;2.22;;;;;;;23.23;45.12;102276.63;4991726;28;20046;-35
2023/06/07 10:53:52;;;;;;;4.85;2.60;;;;;;;23.23;44.79;102280.16;4995711;28;20056;-33
2023/06/07 10:56:29;;;;;;;4.75;2.45;;;;;;;23.23;44.95;102272.06;4995236;28;20054;-33
2023/06/07 10:58:58;;;;;;;5.28;2.33;;;;;;;23.25;45.30;102270.06;5002434;28;20050;-34
2023/06/07 11:01:25;;;;;;;6.55;2.63;;;;;;;23.25;45.63;102263.81;4999542;28;20337;-34
2023/06/07 11:03:53;;;;;;;7.90;2.72;;;;;;;23.27;45.53;102265.31;5001951;28;20054;-34
2023/06/07 11:06:20;;;;;;;6.30;2.10;;;;;;;23.28;45.24;102260.78;5002351;28;20108;-34
2023/06/07 11:08:47;;;;;;;7.75;2.78;;;;;;;23.29;45.12;102265.19;5005763;28;20089;-34
2023/06/07 11:11:39;;;;;;;8.80;2.60;;;;;;;23.28;45.23;102264.34;5002586;28;20338;-33
2023/06/07 11:14:06;;;;;;;9.88;2.75;;;;;;;23.32;45.14;102265.75;4992317;28;20056;-34
2023/06/07 11:16:33;;;;;;;6.57;2.50;;;;;;;23.33;45.02;102261.19;5000187;28;20046;-34
2023/06/07 11:19:07;;;;;;;5.75;2.15;;;;;;;23.35;45.15;102248.31;4996927;28;20054;-35
2023/06/07 11:22:04;;;;;;;16.67;2.92;;;;;;;23.36;44.76;102250.06;4997741;28;20097;-34
2023/06/07 11:24:32;;;;;;;10.88;3.67;;;;;;;23.39;45.19;102253.28;4996626;28;20057;-33
2023/06/07 11:26:59;;;;;;;8.05;2.75;;;;;;;23.41;44.43;102255.84;5001679;28;20037;-34